Time;durP1;ratioP1;P1;durP2;ratioP2;P2;SDS_P1;SDS_P2;PMS_P1;PMS_P2;Temp;Humidity;BMP_temperature;BMP_pressure;BME280_temperature;BME280_humidity;BME280_pressure;Samples;Min_cycle;Max_cycle;Signal;HPM_P1;HPM_P2
2022/03/03 00:00:19;;;;;;;15.40;12.57;;;2.30;44.70;;;;;;6204951;28;20477;-59
2022/03/03 00:03:23;;;;;;;19.20;14.00;;;2.20;44.60;;;;;;6204800;28;20908;-59
2022/03/03 00:06:27;;;;;;;19.67;13.07;;;2.20;44.70;;;;;;6195634;28;20477;-59
2022/03/03 00:09:30;;;;;;;21.47;14.03;;;2.20;44.60;;;;;;6204310;28;20793;-60
2022/03/03 00:12:33;;;;;;;17.07;12.67;;;2.10;44.50;;;;;;6204950;28;20485;-59
2022/03/03 00:15:36;;;;;;;16.93;11.70;;;2.10;44.60;;;;;;6204426;28;20477;-59
2022/03/03 00:18:41;;;;;;;18.23;13.10;;;2.00;44.80;;;;;;6204523;28;20481;-59
2022/03/03 00:21:44;;;;;;;15.30;13.03;;;2.00;45.00;;;;;;6204703;28;20473;-59
2022/03/03 00:24:48;;;;;;;17.00;12.70;;;2.00;45.00;;;;;;6204463;28;20473;-59
2022/03/03 00:27:52;;;;;;;19.57;12.47;;;2.00;45.00;;;;;;6204269;28;20777;-59
2022/03/03 00:30:55;;;;;;;13.70;11.20;;;2.00;45.00;;;;;;6203922;28;20984;-59
2022/03/03 00:34:00;;;;;;;17.43;13.07;;;1.90;45.00;;;;;;6204234;28;20825;-59
2022/03/03 00:37:03;;;;;;;14.77;10.67;;;1.90;45.00;;;;;;6204549;28;20472;-59
2022/03/03 00:40:10;;;;;;;21.83;11.43;;;1.80;45.40;;;;;;6204120;28;20492;-59
2022/03/03 00:43:13;;;;;;;17.63;11.27;;;1.70;45.40;;;;;;6203879;28;20496;-59
2022/03/03 00:46:16;;;;;;;16.50;11.40;;;1.70;45.60;;;;;;6204192;28;20451;-58
2022/03/03 00:49:21;;;;;;;15.53;10.97;;;1.70;45.60;;;;;;6203600;28;20932;-60
2022/03/03 00:52:24;;;;;;;13.50;11.57;;;1.70;45.60;;;;;;6203857;28;20476;-59
2022/03/03 00:55:27;;;;;;;15.40;11.27;;;1.60;45.60;;;;;;6203404;28;20481;-60
2022/03/03 00:58:30;;;;;;;14.97;11.50;;;1.50;45.70;;;;;;6203620;28;20485;-59
2022/03/03 01:01:34;;;;;;;15.23;11.70;;;1.50;46.00;;;;;;6203883;28;20541;-58
2022/03/03 01:04:38;;;;;;;16.37;12.30;;;1.50;46.10;;;;;;6203601;28;20493;-58
2022/03/03 01:07:42;;;;;;;12.90;11.50;;;1.40;46.70;;;;;;6199581;28;20473;-59
2022/03/03 01:10:45;;;;;;;14.27;12.17;;;1.40;46.30;;;;;;6203250;28;20473;-59
2022/03/03 01:13:48;;;;;;;13.70;10.43;;;1.30;46.30;;;;;;6203482;28;20488;-59
2022/03/03 01:16:51;;;;;;;14.10;11.63;;;1.40;46.60;;;;;;6202988;28;20977;-59
2022/03/03 01:19:56;;;;;;;15.23;10.47;;;1.30;46.60;;;;;;6203410;28;20485;-59
2022/03/03 01:22:59;;;;;;;14.57;10.23;;;1.30;46.70;;;;;;6203579;28;20480;-58
2022/03/03 01:26:02;;;;;;;11.90;10.23;;;1.30;46.60;;;;;;6203222;28;20484;-58
2022/03/03 01:29:05;;;;;;;13.40;10.23;;;1.20;46.60;;;;;;6203147;28;20500;-58
2022/03/03 01:32:09;;;;;;;14.73;11.90;;;1.20;46.80;;;;;;6202847;28;20485;-58
2022/03/03 01:35:14;;;;;;;13.20;10.60;;;1.10;47.10;;;;;;6202954;28;20473;-58
2022/03/03 01:38:17;;;;;;;13.30;10.70;;;1.20;47.30;;;;;;6202796;28;20481;-59
2022/03/03 01:41:21;;;;;;;14.90;10.77;;;1.20;47.50;;;;;;6202723;28;20955;-59
2022/03/03 01:44:25;;;;;;;13.23;10.57;;;1.00;47.40;;;;;;6202696;28;20953;-61
2022/03/03 01:47:29;;;;;;;16.70;10.87;;;1.00;47.60;;;;;;6202596;28;21057;-60
2022/03/03 01:50:33;;;;;;;14.30;11.43;;;1.00;47.60;;;;;;6202651;28;20884;-60
2022/03/03 01:53:37;;;;;;;13.57;10.80;;;1.00;47.70;;;;;;6202241;28;20492;-58
2022/03/03 01:56:41;;;;;;;16.33;9.87;;;0.90;48.10;;;;;;6202399;28;20480;-59
2022/03/03 01:59:45;;;;;;;16.10;10.70;;;0.90;48.20;;;;;;6202417;28;20473;-59
2022/03/03 02:02:48;;;;;;;13.50;11.07;;;0.90;48.40;;;;;;6202335;28;20792;-58
2022/03/03 02:05:53;;;;;;;20.43;10.67;;;0.90;48.50;;;;;;6202038;28;20469;-58
2022/03/03 02:08:56;;;;;;;12.87;11.57;;;0.80;48.40;;;;;;6202173;28;20477;-59
2022/03/03 02:11:59;;;;;;;17.97;10.67;;;0.80;48.40;;;;;;6202060;28;20481;-59
2022/03/03 02:15:02;;;;;;;11.60;9.17;;;0.70;48.40;;;;;;6201749;28;20485;-59
2022/03/03 02:18:06;;;;;;;13.83;10.80;;;0.70;48.80;;;;;;6201913;28;20492;-59
2022/03/03 02:21:12;;;;;;;16.77;11.70;;;0.80;48.90;;;;;;6201921;28;20473;-59
2022/03/03 02:24:15;;;;;;;13.93;9.23;;;0.70;48.80;;;;;;6201979;28;20821;-59
2022/03/03 02:27:20;;;;;;;13.00;10.23;;;0.70;48.70;;;;;;6202967;28;20481;-59
2022/03/03 02:30:23;;;;;;;16.53;10.53;;;0.70;48.80;;;;;;6201899;28;20485;-58
2022/03/03 02:33:26;;;;;;;10.50;9.10;;;0.70;48.80;;;;;;6201410;28;20487;-58
2022/03/03 02:36:31;;;;;;;13.50;9.43;;;0.60;48.90;;;;;;6201177;28;20481;-59
2022/03/03 02:39:34;;;;;;;16.17;10.87;;;0.60;49.20;;;;;;6200752;28;20481;-59
2022/03/03 02:42:37;;;;;;;10.93;9.80;;;0.60;49.10;;;;;;6201105;28;20551;-60
2022/03/03 02:45:40;;;;;;;16.90;10.60;;;0.50;49.30;;;;;;6201779;28;20485;-60
2022/03/03 02:48:44;;;;;;;17.83;12.37;;;0.50;49.40;;;;;;6201472;28;20484;-59
2022/03/03 02:51:50;;;;;;;15.60;11.80;;;0.40;49.50;;;;;;6200056;28;20550;-59
2022/03/03 02:54:53;;;;;;;14.67;10.93;;;0.40;49.70;;;;;;6201116;28;21004;-59
2022/03/03 02:57:56;;;;;;;18.47;13.27;;;0.40;50.00;;;;;;6201037;28;20473;-59
2022/03/03 03:01:01;;;;;;;17.20;11.00;;;0.30;50.20;;;;;;6201399;28;20481;-59
2022/03/03 03:04:04;;;;;;;13.00;10.47;;;0.30;50.00;;;;;;6201464;28;20499;-59
2022/03/03 03:07:09;;;;;;;14.97;11.07;;;0.30;50.10;;;;;;6201383;28;20512;-60
2022/03/03 03:10:13;;;;;;;13.80;10.97;;;0.30;50.10;;;;;;6201270;28;20469;-59
2022/03/03 03:13:16;;;;;;;13.53;10.53;;;0.30;50.30;;;;;;6201165;28;20488;-59
2022/03/03 03:16:19;;;;;;;13.40;10.20;;;0.20;50.20;;;;;;6196214;28;20757;-59
2022/03/03 03:19:22;;;;;;;10.07;9.07;;;0.20;50.10;;;;;;6200978;28;20555;-59
2022/03/03 03:22:26;;;;;;;14.30;10.30;;;0.10;50.20;;;;;;6201145;28;20461;-60
2022/03/03 03:25:30;;;;;;;13.00;10.13;;;0.10;50.30;;;;;;6200655;28;20975;-59
2022/03/03 03:28:33;;;;;;;12.20;9.73;;;0.10;50.60;;;;;;6200708;28;20473;-59
2022/03/03 03:31:36;;;;;;;12.50;9.70;;;0.00;50.80;;;;;;6201295;28;20469;-59
2022/03/03 03:34:39;;;;;;;13.87;10.27;;;0.00;50.90;;;;;;6200930;28;20473;-59
2022/03/03 03:37:43;;;;;;;11.73;9.90;;;0.00;51.20;;;;;;6201065;28;20528;-59
2022/03/03 03:40:46;;;;;;;16.60;11.70;;;-0.10;51.30;;;;;;6200490;28;20563;-59
2022/03/03 03:43:50;;;;;;;16.13;10.20;;;-0.10;51.40;;;;;;6200767;28;20473;-59
2022/03/03 03:46:53;;;;;;;14.20;10.90;;;-0.10;51.50;;;;;;6200726;28;20476;-59
2022/03/03 03:49:56;;;;;;;13.10;9.67;;;-0.10;51.60;;;;;;6200680;28;20489;-59
2022/03/03 03:53:00;;;;;;;11.37;9.67;;;-0.10;51.90;;;;;;6200545;28;20804;-59
2022/03/03 03:56:04;;;;;;;16.73;10.50;;;-0.10;51.70;;;;;;6200912;28;20481;-59
2022/03/03 03:59:07;;;;;;;12.77;10.13;;;-0.20;51.60;;;;;;6200702;28;20490;-59
2022/03/03 04:02:11;;;;;;;15.63;9.63;;;-0.30;51.70;;;;;;6202454;28;20827;-60
2022/03/03 04:05:15;;;;;;;17.27;11.40;;;-0.20;51.80;;;;;;6205152;28;20465;-60
2022/03/03 04:08:20;;;;;;;12.10;8.23;;;-0.30;51.80;;;;;;6204877;28;20531;-59
2022/03/03 04:11:23;;;;;;;10.27;9.17;;;-0.30;51.80;;;;;;6205288;28;20505;-59
2022/03/03 04:14:26;;;;;;;12.70;9.67;;;-0.30;52.00;;;;;;6204521;28;20917;-59
2022/03/03 04:17:30;;;;;;;11.97;8.93;;;-0.40;51.90;;;;;;6204742;28;20483;-59
2022/03/03 04:20:38;;;;;;;12.13;9.63;;;-0.30;52.10;;;;;;6204156;28;20477;-59
2022/03/03 04:23:43;;;;;;;15.03;11.17;;;-0.40;52.10;;;;;;6204607;28;20949;-59
2022/03/03 04:26:48;;;;;;;14.73;10.50;;;-0.30;52.40;;;;;;6204229;28;20477;-59
2022/03/03 04:29:51;;;;;;;12.37;9.43;;;-0.30;52.40;;;;;;6204279;28;20482;-59
2022/03/03 04:32:54;;;;;;;12.63;10.07;;;-0.40;52.30;;;;;;6204200;28;20481;-60
2022/03/03 04:35:58;;;;;;;16.40;10.30;;;-0.50;52.40;;;;;;6203991;28;20492;-59
2022/03/03 04:39:02;;;;;;;13.60;9.13;;;-0.50;52.70;;;;;;6203870;28;20485;-60
2022/03/03 04:42:06;;;;;;;15.43;10.10;;;-0.50;52.70;;;;;;6204364;28;20473;-61
2022/03/03 04:45:10;;;;;;;18.50;11.23;;;-0.40;52.80;;;;;;6204249;28;20480;-60
2022/03/03 04:48:13;;;;;;;13.27;8.80;;;-0.50;52.90;;;;;;6203781;28;20473;-60
2022/03/03 04:51:16;;;;;;;12.90;9.53;;;-0.50;52.80;;;;;;6203899;28;20477;-60
2022/03/03 04:54:21;;;;;;;14.57;10.10;;;-0.50;52.70;;;;;;6203719;28;20500;-60
2022/03/03 04:57:24;;;;;;;12.13;10.13;;;-0.40;52.70;;;;;;6203783;28;20469;-60
2022/03/03 05:00:27;;;;;;;12.70;10.17;;;-0.50;52.90;;;;;;6203851;28;20477;-61
2022/03/03 05:03:30;;;;;;;12.27;10.30;;;-0.60;53.10;;;;;;6203680;28;20479;-60
2022/03/03 05:06:33;;;;;;;13.90;10.20;;;-0.60;53.30;;;;;;6203722;28;20477;-59
2022/03/03 05:09:38;;;;;;;18.47;10.60;;;-0.60;53.40;;;;;;6203404;28;20481;-60
2022/03/03 05:12:41;;;;;;;19.10;10.47;;;-0.60;53.40;;;;;;6202753;28;20473;-60
2022/03/03 05:15:44;;;;;;;12.90;9.80;;;-0.70;53.50;;;;;;6203188;28;20481;-61
2022/03/03 05:18:47;;;;;;;17.20;10.10;;;-0.70;53.80;;;;;;6203695;28;20481;-60
2022/03/03 05:21:50;;;;;;;20.50;11.10;;;-0.70;54.10;;;;;;6203320;28;20477;-60
2022/03/03 05:24:55;;;;;;;17.43;10.60;;;-0.80;54.10;;;;;;6202977;28;20523;-61
2022/03/03 05:28:00;;;;;;;11.40;9.77;;;-0.70;54.20;;;;;;6198381;28;20511;-60
2022/03/03 05:31:03;;;;;;;17.70;10.47;;;-0.80;54.20;;;;;;6199273;28;20843;-60
2022/03/03 05:34:06;;;;;;;16.50;11.03;;;-0.80;54.20;;;;;;6202896;28;20477;-60
2022/03/03 05:37:09;;;;;;;11.80;10.30;;;-0.80;54.30;;;;;;6203058;28;20449;-60
2022/03/03 05:40:14;;;;;;;16.47;13.77;;;-0.80;54.60;;;;;;6202702;28;20787;-60
2022/03/03 05:43:17;;;;;;;17.33;13.53;;;-0.90;54.80;;;;;;6203099;28;20466;-60
2022/03/03 05:46:21;;;;;;;17.57;13.87;;;-0.90;55.00;;;;;;6202309;28;20906;-60
2022/03/03 05:49:26;;;;;;;17.20;13.20;;;-0.90;55.40;;;;;;6202616;28;20477;-59
2022/03/03 05:52:30;;;;;;;18.60;13.10;;;-0.80;55.30;;;;;;6202381;28;20469;-60
2022/03/03 05:55:42;;;;;;;16.57;11.67;;;-0.80;55.00;;;;;;6202889;28;20474;-59
2022/03/03 05:58:48;;;;;;;16.00;12.03;;;-0.70;54.80;;;;;;6202517;28;20481;-60
2022/03/03 06:01:53;;;;;;;16.37;12.83;;;-0.80;54.60;;;;;;6202312;28;20949;-60
2022/03/03 06:04:58;;;;;;;14.97;12.10;;;-0.80;54.90;;;;;;6202399;28;20469;-60
2022/03/03 06:08:04;;;;;;;13.70;11.20;;;-0.80;55.20;;;;;;6204072;28;20473;-60
2022/03/03 06:11:15;;;;;;;11.87;10.20;;;-0.80;55.10;;;;;;6202753;28;20492;-60
2022/03/03 06:14:24;;;;;;;13.80;10.63;;;-0.70;55.20;;;;;;6201922;28;20504;-60
2022/03/03 06:17:27;;;;;;;13.83;10.67;;;-0.70;55.10;;;;;;6201871;28;20950;-59
2022/03/03 06:20:32;;;;;;;15.73;10.80;;;-0.60;55.00;;;;;;6201956;28;20492;-60
2022/03/03 06:23:35;;;;;;;18.47;11.50;;;-0.60;54.90;;;;;;6202009;28;20473;-60
2022/03/03 06:26:40;;;;;;;13.17;11.03;;;-0.60;54.90;;;;;;6201335;28;20477;-60
2022/03/03 06:29:43;;;;;;;14.27;10.90;;;-0.50;55.00;;;;;;6202031;28;20481;-60
2022/03/03 06:32:47;;;;;;;13.80;10.40;;;-0.50;55.00;;;;;;6201849;28;20480;-60
2022/03/03 06:35:51;;;;;;;14.23;11.20;;;-0.50;54.80;;;;;;6201430;28;20474;-60
2022/03/03 06:38:54;;;;;;;18.80;10.40;;;-0.40;55.00;;;;;;6200644;28;20473;-58
2022/03/03 06:41:58;;;;;;;18.17;11.23;;;-0.30;54.70;;;;;;6201261;28;20480;-61
2022/03/03 06:45:02;;;;;;;14.07;10.50;;;-0.30;54.20;;;;;;6201130;28;20476;-59
2022/03/03 06:48:06;;;;;;;14.97;10.73;;;-0.20;53.70;;;;;;6200966;28;20477;-60
2022/03/03 06:51:11;;;;;;;15.40;10.73;;;-0.20;53.20;;;;;;6200850;28;20492;-59
2022/03/03 06:54:17;;;;;;;16.33;10.20;;;-0.10;52.90;;;;;;6200906;28;20788;-60
2022/03/03 06:57:23;;;;;;;15.90;11.37;;;0.00;52.70;;;;;;6201014;28;20829;-60
2022/03/03 07:00:33;;;;;;;14.00;9.90;;;0.10;53.10;;;;;;6200848;28;20477;-59
2022/03/03 07:03:38;;;;;;;14.20;10.10;;;0.10;52.50;;;;;;6200729;28;20469;-60
2022/03/03 07:06:42;;;;;;;14.23;11.87;;;0.20;52.50;;;;;;6201003;28;20473;-59
2022/03/03 07:09:45;;;;;;;19.03;12.47;;;0.30;52.40;;;;;;6200426;28;20496;-59
2022/03/03 07:12:51;;;;;;;37.77;19.63;;;0.40;52.30;;;;;;6201356;28;20532;-59
2022/03/03 07:15:56;;;;;;;26.00;13.83;;;0.50;51.50;;;;;;6201101;28;20513;-59
2022/03/03 07:19:03;;;;;;;18.97;12.50;;;0.70;51.00;;;;;;6203523;28;20507;-60
2022/03/03 07:22:16;;;;;;;17.33;11.67;;;0.80;49.80;;;;;;6219047;28;20454;-60
2022/03/03 07:25:21;;;;;;;24.53;12.60;;;0.90;49.20;;;;;;6225392;28;20440;-60
2022/03/03 07:28:28;;;;;;;13.27;10.53;;;1.10;48.60;;;;;;6225189;28;20464;-58
2022/03/03 07:31:34;;;;;;;13.80;10.00;;;1.20;48.50;;;;;;6225094;28;20787;-58
2022/03/03 07:34:39;;;;;;;12.83;9.73;;;1.40;48.10;;;;;;6225263;28;20481;-59
2022/03/03 07:37:48;;;;;;;9.30;8.27;;;1.50;47.80;;;;;;6228745;28;20472;-58
2022/03/03 07:40:53;;;;;;;14.80;8.47;;;1.70;47.40;;;;;;6229600;28;20507;-60
2022/03/03 07:43:59;;;;;;;13.63;9.30;;;1.80;46.80;;;;;;6228824;28;20850;-59
2022/03/03 07:47:04;;;;;;;13.77;9.90;;;1.90;46.40;;;;;;6228556;28;20500;-59
2022/03/03 07:50:08;;;;;;;18.60;10.97;;;1.90;46.10;;;;;;6228313;28;20559;-59
2022/03/03 07:53:14;;;;;;;17.60;10.80;;;2.10;46.50;;;;;;6227990;28;20978;-60
2022/03/03 07:56:24;;;;;;;18.40;9.00;;;2.30;46.30;;;;;;6227895;28;20476;-60
2022/03/03 07:59:33;;;;;;;16.17;9.37;;;2.50;45.90;;;;;;6228964;28;20476;-59
2022/03/03 08:02:39;;;;;;;13.40;9.77;;;2.70;45.50;;;;;;6229024;28;20980;-59
2022/03/03 08:05:44;;;;;;;18.23;10.23;;;2.80;44.20;;;;;;6229319;28;20472;-59
2022/03/03 08:08:48;;;;;;;13.70;9.87;;;3.10;43.80;;;;;;6229100;28;20961;-59
2022/03/03 08:11:54;;;;;;;10.37;8.93;;;3.20;43.00;;;;;;6229754;28;20480;-59
2022/03/03 08:14:59;;;;;;;17.00;10.70;;;3.40;43.70;;;;;;6228643;28;20491;-60
2022/03/03 08:18:02;;;;;;;17.47;9.60;;;3.70;43.60;;;;;;6228924;28;20550;-60
2022/03/03 08:21:07;;;;;;;18.03;11.50;;;4.00;42.80;;;;;;6228927;28;20483;-60
2022/03/03 08:24:12;;;;;;;18.70;13.57;;;4.30;42.90;;;;;;6228723;28;20472;-60
2022/03/03 08:27:15;;;;;;;21.90;13.03;;;4.50;42.50;;;;;;6228244;28;20506;-60
2022/03/03 08:30:20;;;;;;;16.70;13.60;;;4.70;42.60;;;;;;6228101;28;20472;-60
2022/03/03 08:33:35;;;;;;;15.47;12.90;;;5.10;42.00;;;;;;6228404;28;20476;-60
2022/03/03 08:36:45;;;;;;;16.90;11.60;;;5.50;41.20;;;;;;6228340;28;20542;-59
2022/03/03 08:39:51;;;;;;;15.00;10.83;;;6.40;39.90;;;;;;6219115;28;20604;-59
2022/03/03 08:42:59;;;;;;;15.87;11.80;;;10.30;36.10;;;;;;6228030;28;20483;-59
2022/03/03 08:46:07;;;;;;;13.93;11.40;;;15.40;29.70;;;;;;6228048;28;20558;-60
2022/03/03 08:49:14;;;;;;;18.73;14.23;;;19.60;24.50;;;;;;6227177;28;20472;-60
2022/03/03 08:52:18;;;;;;;20.00;14.27;;;22.50;21.20;;;;;;6228380;28;20440;-60
2022/03/03 08:55:22;;;;;;;17.10;13.87;;;24.10;19.10;;;;;;6228302;28;20228;-60
2022/03/03 08:58:25;;;;;;;17.83;15.37;;;26.30;17.90;;;;;;6227897;28;20674;-61
2022/03/03 09:01:31;;;;;;;16.10;14.50;;;28.50;16.10;;;;;;6228305;28;20227;-61
2022/03/03 09:04:39;;;;;;;16.30;14.80;;;30.00;14.60;;;;;;6227584;28;20229;-62
2022/03/03 09:07:42;;;;;;;16.37;14.60;;;30.80;14.00;;;;;;6227865;28;20235;-62
2022/03/03 09:10:45;;;;;;;15.93;14.48;;;32.00;13.10;;;;;;6227662;28;20224;-61
2022/03/03 09:13:48;;;;;;;18.40;16.70;;;32.90;12.50;;;;;;6227885;28;20228;-61
2022/03/03 09:16:53;;;;;;;17.75;16.15;;;31.90;12.10;;;;;;6227825;28;20243;-61
2022/03/03 09:19:56;;;;;;;16.10;14.60;;;31.50;12.30;;;;;;6227553;28;20243;-61
2022/03/03 09:22:59;;;;;;;19.00;17.02;;;31.30;12.30;;;;;;6227448;28;20572;-61
2022/03/03 09:26:04;;;;;;;17.45;15.93;;;32.10;12.20;;;;;;6227924;28;20220;-62
2022/03/03 09:29:07;;;;;;;15.95;14.50;;;32.90;11.70;;;;;;6227907;28;20350;-63
2022/03/03 09:32:13;;;;;;;17.13;15.40;;;33.60;11.30;;;;;;6227658;28;20240;-62
2022/03/03 09:35:17;;;;;;;14.45;13.15;;;34.70;10.70;;;;;;6228009;28;20235;-61
2022/03/03 09:38:20;;;;;;;16.20;13.77;;;35.00;10.20;;;;;;6226689;28;20591;-61
2022/03/03 09:41:24;;;;;;;14.75;13.45;;;34.80;10.10;;;;;;6222481;28;20240;-61
2022/03/03 09:44:28;;;;;;;16.00;14.50;;;33.70;10.20;;;;;;6226660;28;20240;-62
2022/03/03 09:47:34;;;;;;;14.95;13.48;;;33.80;10.90;;;;;;6226694;28;20232;-61
2022/03/03 09:50:40;;;;;;;15.50;14.13;;;33.40;10.10;;;;;;6226387;28;20247;-63
2022/03/03 09:53:44;;;;;;;16.17;14.70;;;32.80;10.30;;;;;;6226207;28;20229;-61
2022/03/03 09:56:47;;;;;;;13.25;12.10;;;31.50;10.30;;;;;;6226442;28;20239;-61
2022/03/03 09:59:50;;;;;;;12.68;11.43;;;31.40;10.70;;;;;;6225712;28;20804;-61
2022/03/03 10:03:07;;;;;;;12.68;11.30;;;32.20;10.50;;;;;;6226174;28;20730;-61
2022/03/03 10:06:13;;;;;;;12.77;11.52;;;32.60;10.30;;;;;;6226453;28;20229;-61
2022/03/03 10:09:17;;;;;;;13.65;12.20;;;32.70;10.00;;;;;;6226467;28;20232;-61
2022/03/03 10:12:21;;;;;;;13.00;11.82;;;31.80;10.30;;;;;;6225815;28;20239;-61
2022/03/03 10:15:29;;;;;;;12.90;11.88;;;31.80;10.30;;;;;;6225849;28;20240;-62
2022/03/03 10:18:33;;;;;;;12.35;11.02;;;31.60;10.30;;;;;;6225762;28;20242;-61
2022/03/03 10:21:38;;;;;;;11.13;10.02;;;32.80;10.00;;;;;;6226256;28;20723;-62
2022/03/03 10:24:44;;;;;;;11.63;10.43;;;34.10;9.10;;;;;;6225700;28;20237;-62
2022/03/03 10:27:48;;;;;;;11.32;10.43;;;34.10;9.20;;;;;;6225868;28;20228;-62
2022/03/03 10:30:58;;;;;;;10.88;8.50;;;32.30;9.10;;;;;;6225818;28;20290;-61
2022/03/03 10:34:03;;;;;;;7.80;7.07;;;32.30;8.60;;;;;;6226173;28;20318;-61
2022/03/03 10:37:08;;;;;;;8.27;7.53;;;32.00;8.30;;;;;;6225475;28;20545;-62
2022/03/03 10:40:13;;;;;;;7.55;6.80;;;32.30;8.30;;;;;;6225579;28;20653;-61
2022/03/03 10:43:16;;;;;;;8.20;6.65;;;33.90;7.70;;;;;;6225664;28;20208;-61
2022/03/03 10:46:20;;;;;;;7.75;7.13;;;34.00;7.10;;;;;;6225538;28;20201;-61
2022/03/03 10:49:25;;;;;;;8.07;7.28;;;33.70;8.30;;;;;;6226479;28;20672;-60
2022/03/03 10:52:31;;;;;;;9.18;8.38;;;36.10;7.60;;;;;;6227698;28;20571;-61
2022/03/03 10:55:34;;;;;;;9.20;8.30;;;37.50;7.10;;;;;;6227874;28;20298;-61
2022/03/03 10:58:48;;;;;;;9.55;8.57;;;35.90;7.20;;;;;;6227876;28;20550;-61
2022/03/03 11:01:53;;;;;;;9.55;8.75;;;35.80;7.80;;;;;;6227612;28;20570;-61
2022/03/03 11:04:58;;;;;;;9.25;8.45;;;37.20;7.60;;;;;;6227062;28;20681;-63
2022/03/03 11:08:01;;;;;;;9.02;8.15;;;37.60;6.90;;;;;;6227208;28;20243;-62
2022/03/03 11:11:04;;;;;;;8.68;7.93;;;37.40;7.00;;;;;;6228033;28;20234;-62
2022/03/03 11:14:08;;;;;;;8.43;7.72;;;38.10;6.70;;;;;;6232089;28;20294;-62
2022/03/03 11:17:11;;;;;;;10.68;7.78;;;35.50;6.80;;;;;;6230722;28;20355;-62
2022/03/03 11:20:17;;;;;;;10.80;7.45;;;34.40;7.20;;;;;;6230275;28;20239;-62
2022/03/03 11:23:21;;;;;;;8.23;7.53;;;33.70;7.10;;;;;;6230182;28;20232;-62
2022/03/03 11:26:26;;;;;;;7.85;7.15;;;33.10;7.30;;;;;;6230090;28;20235;-61
2022/03/03 11:29:32;;;;;;;7.90;7.10;;;33.80;7.30;;;;;;6230353;28;20247;-61
2022/03/03 11:32:35;;;;;;;7.10;6.50;;;34.20;7.40;;;;;;6231118;28;20232;-62
2022/03/03 11:35:49;;;;;;;7.38;6.75;;;34.50;7.10;;;;;;6231158;28;20258;-61
2022/03/03 11:38:54;;;;;;;7.10;6.55;;;36.00;6.80;;;;;;6229923;28;20255;-62
2022/03/03 11:41:57;;;;;;;6.88;6.38;;;37.00;6.60;;;;;;6229858;28;20308;-62
2022/03/03 11:45:16;;;;;;;10.10;7.85;;;37.90;6.30;;;;;;6229749;28;20236;-61
2022/03/03 11:48:20;;;;;;;7.90;7.20;;;38.60;6.20;;;;;;6229393;28;20233;-62
2022/03/03 11:51:36;;;;;;;7.65;6.85;;;39.50;6.00;;;;;;6220308;28;20697;-62
2022/03/03 11:55:00;;;;;;;8.00;7.30;;;37.80;6.10;;;;;;6229731;28;20274;-62
2022/03/03 11:58:06;;;;;;;8.25;6.85;;;36.50;6.60;;;;;;6229444;28;20232;-62
2022/03/03 12:01:11;;;;;;;6.75;6.13;;;37.60;6.30;;;;;;6229391;28;20232;-61
2022/03/03 12:04:15;;;;;;;6.95;6.35;;;39.30;6.40;;;;;;6229112;28;20298;-61
2022/03/03 12:07:37;;;;;;;6.82;6.22;;;41.30;5.60;;;;;;6228920;28;20235;-61
2022/03/03 12:10:59;;;;;;;11.05;6.03;;;42.60;5.10;;;;;;6228908;28;20241;-61
2022/03/03 12:14:02;;;;;;;6.57;6.07;;;42.00;5.10;;;;;;6229046;28;20232;-62
2022/03/03 12:17:38;;;;;;;10.18;8.68;;;41.00;4.80;;;;;;6228902;28;20228;-62
2022/03/03 12:20:45;;;;;;;6.75;6.18;;;40.90;5.00;;;;;;6228637;28;20703;-62
2022/03/03 12:24:31;;;;;;;6.57;6.00;;;41.00;4.80;;;;;;6228682;28;20225;-62
2022/03/03 12:27:34;;;;;;;9.13;7.18;;;39.90;5.10;;;;;;6228870;28;20233;-62
2022/03/03 12:30:44;;;;;;;6.68;6.18;;;39.20;5.70;;;;;;6228359;28;20232;-62
2022/03/03 12:33:59;;;;;;;6.70;6.13;;;41.00;5.40;;;;;;6228361;28;20234;-62
2022/03/03 12:37:05;;;;;;;6.72;6.13;;;42.20;5.00;;;;;;6228643;28;20232;-62
2022/03/03 12:40:12;;;;;;;7.80;7.15;;;42.00;4.80;;;;;;6227841;28;20244;-62
2022/03/03 12:43:17;;;;;;;6.90;6.32;;;42.40;4.90;;;;;;6228158;28;20593;-62
2022/03/03 12:46:20;;;;;;;6.43;5.95;;;43.40;4.90;;;;;;6228239;28;20638;-62
2022/03/03 12:49:24;;;;;;;6.40;5.80;;;42.60;4.60;;;;;;6228329;28;20285;-61
2022/03/03 12:52:27;;;;;;;5.93;5.53;;;41.40;4.60;;;;;;6223376;28;20236;-61
2022/03/03 12:55:34;;;;;;;6.20;5.70;;;41.20;4.70;;;;;;6228151;28;20970;-62
2022/03/03 12:58:37;;;;;;;6.53;6.00;;;41.80;4.40;;;;;;6227846;28;20248;-62
2022/03/03 13:01:43;;;;;;;7.63;6.57;;;41.70;4.30;;;;;;6228053;28;20232;-62
2022/03/03 13:04:47;;;;;;;7.43;6.72;;;42.60;4.60;;;;;;6228001;28;20263;-62
2022/03/03 13:07:50;;;;;;;7.78;7.03;;;42.90;4.70;;;;;;6227522;28;20239;-62
2022/03/03 13:10:56;;;;;;;8.43;7.72;;;42.60;4.50;;;;;;6227750;28;20231;-62
2022/03/03 13:14:06;;;;;;;7.90;7.15;;;42.90;4.50;;;;;;6227679;28;20544;-62
2022/03/03 13:17:12;;;;;;;8.23;7.47;;;42.70;4.60;;;;;;6227592;28;20308;-62
2022/03/03 13:20:15;;;;;;;7.30;6.70;;;41.80;4.80;;;;;;6227281;28;20239;-62
2022/03/03 13:23:18;;;;;;;7.43;6.93;;;42.10;4.70;;;;;;6227515;28;20251;-62
2022/03/03 13:26:25;;;;;;;9.05;8.35;;;42.10;4.60;;;;;;6227643;28;20587;-62
2022/03/03 13:29:30;;;;;;;8.48;7.78;;;40.40;4.80;;;;;;6226924;28;20232;-61
2022/03/03 13:32:44;;;;;;;7.95;7.05;;;40.50;5.10;;;;;;6227049;28;20312;-61
2022/03/03 13:35:47;;;;;;;7.90;7.18;;;40.30;5.20;;;;;;6226942;28;20232;-61
2022/03/03 13:38:52;;;;;;;8.40;7.70;;;40.10;4.90;;;;;;6226603;28;20322;-62
2022/03/03 13:42:08;;;;;;;8.27;7.68;;;38.80;4.90;;;;;;6227545;28;20587;-61
2022/03/03 13:45:26;;;;;;;9.25;8.45;;;35.20;6.20;;;;;;6227003;28;20229;-62
2022/03/03 13:48:34;;;;;;;9.05;8.35;;;35.70;6.40;;;;;;6226707;28;20236;-62
2022/03/03 13:51:37;;;;;;;9.38;8.55;;;36.40;6.10;;;;;;6226869;28;20228;-62
2022/03/03 13:54:46;;;;;;;10.40;9.25;;;35.60;6.30;;;;;;6227009;28;20236;-61
2022/03/03 13:57:51;;;;;;;9.30;8.50;;;33.40;6.80;;;;;;6226506;28;20562;-61
2022/03/03 14:00:55;;;;;;;10.17;9.13;;;31.20;7.50;;;;;;6212485;28;20240;-61
2022/03/03 14:04:10;;;;;;;9.27;8.30;;;28.30;8.50;;;;;;6226543;28;20577;-62
2022/03/03 14:07:27;;;;;;;9.43;8.60;;;25.80;9.70;;;;;;6226466;28;20237;-61
2022/03/03 14:10:46;;;;;;;8.43;7.63;;;23.40;10.40;;;;;;6227170;28;20315;-61
2022/03/03 14:13:53;;;;;;;7.90;7.20;;;21.30;11.30;;;;;;6226164;28;20225;-60
2022/03/03 14:16:58;;;;;;;7.70;6.90;;;19.70;12.30;;;;;;6226336;28;20228;-60
2022/03/03 14:20:01;;;;;;;8.17;7.37;;;18.60;13.00;;;;;;6227391;28;20229;-62
2022/03/03 14:23:04;;;;;;;7.90;7.20;;;17.50;13.60;;;;;;6226999;28;20607;-62
2022/03/03 14:26:10;;;;;;;8.30;7.40;;;16.50;14.20;;;;;;6227055;28;20231;-63
2022/03/03 14:29:15;;;;;;;7.83;7.00;;;15.70;15.00;;;;;;6226628;28;20548;-62
2022/03/03 14:32:18;;;;;;;8.50;7.67;;;15.10;15.20;;;;;;6227520;28;20484;-63
2022/03/03 14:35:21;;;;;;;7.17;6.53;;;15.00;15.30;;;;;;6227104;28;20480;-62
2022/03/03 14:38:25;;;;;;;7.77;6.90;;;14.80;15.30;;;;;;6227249;28;20467;-62
2022/03/03 14:41:29;;;;;;;9.00;8.10;;;14.70;15.40;;;;;;6228957;28;20482;-63
2022/03/03 14:44:34;;;;;;;7.63;6.83;;;14.50;16.00;;;;;;6228390;28;20468;-62
2022/03/03 14:47:37;;;;;;;7.83;6.47;;;14.30;16.40;;;;;;6226898;28;20823;-63
2022/03/03 14:50:42;;;;;;;8.07;6.43;;;13.90;16.30;;;;;;6226517;28;20490;-62
2022/03/03 14:53:46;;;;;;;8.87;6.97;;;13.70;16.30;;;;;;6227394;28;20481;-62
2022/03/03 14:56:49;;;;;;;10.80;8.00;;;13.60;16.70;;;;;;6226445;28;20534;-62
2022/03/03 14:59:54;;;;;;;8.20;7.30;;;13.50;17.10;;;;;;6226843;28;20763;-61
2022/03/03 15:02:58;;;;;;;7.77;6.97;;;13.40;17.60;;;;;;6216917;28;20488;-63
2022/03/03 15:06:01;;;;;;;8.90;8.00;;;13.30;17.80;;;;;;6226779;28;20476;-62
2022/03/03 15:09:05;;;;;;;9.17;7.63;;;13.20;18.10;;;;;;6226749;28;21007;-61
2022/03/03 15:12:09;;;;;;;12.80;8.53;;;13.00;18.30;;;;;;6227200;28;20479;-62
2022/03/03 15:15:14;;;;;;;10.00;8.33;;;12.80;18.60;;;;;;6226229;28;20559;-62
2022/03/03 15:18:17;;;;;;;9.10;7.73;;;12.50;18.70;;;;;;6226490;28;20475;-62
2022/03/03 15:21:20;;;;;;;11.13;8.60;;;12.50;18.80;;;;;;6226508;28;20498;-62
2022/03/03 15:24:23;;;;;;;8.43;7.63;;;12.40;18.70;;;;;;6226190;28;20803;-63
2022/03/03 15:27:27;;;;;;;7.70;7.00;;;12.40;18.70;;;;;;6226143;28;20850;-63
2022/03/03 15:30:32;;;;;;;9.70;8.33;;;12.50;18.70;;;;;;6226789;28;20494;-63
2022/03/03 15:36:57;;;;;;;10.77;8.17;;;12.30;18.70;;;;;;6226890;28;20493;-62
2022/03/03 15:40:00;;;;;;;9.70;8.63;;;12.20;18.60;;;;;;6225194;28;20478;-62
2022/03/03 15:43:03;;;;;;;10.10;8.27;;;12.00;18.70;;;;;;6224658;28;20534;-63
2022/03/03 15:46:08;;;;;;;8.60;7.73;;;11.80;18.70;;;;;;6224709;28;20463;-62
2022/03/03 15:49:12;;;;;;;8.87;7.97;;;11.80;18.80;;;;;;6225066;28;20491;-62
2022/03/03 15:52:20;;;;;;;9.07;8.20;;;11.70;18.90;;;;;;6224914;28;20745;-62
2022/03/03 15:55:23;;;;;;;8.00;7.17;;;11.50;18.80;;;;;;6224614;28;20480;-62
2022/03/03 15:58:26;;;;;;;13.13;8.60;;;11.40;19.00;;;;;;6226708;28;20532;-62